RCTP/TPE METAR and TAF weather

Enter ICAO airport designator
Station Type Date Time Source
RCTP METAR 2019/08/25 06:30 UTC NOAA

RCTP 250630Z 02005KT 9999 FEW015 SCT100 BKN200 32/26 Q1005 NOSIG RMK A2969


Station Type Date Time Source
RCTP Decoded METAR 2019/08/25 06:30 UTC NOAA

Station name not available
Aug 25, 2019 - 02:30 AM EDT / 2019.08.25 0630 UTC
Wind: from the NNE (020 degrees) at 6 MPH (5 KT):0
Visibility: greater than 7 mile(s):0
Sky conditions: mostly cloudy
Temperature: 89 F (32 C)
Heat index: 102.9 F (39.4 C):1
Dew Point: 78 F (26 C)
Relative Humidity: 70%
Pressure (altimeter): 29.68 in. Hg (1005 hPa)
ob: RCTP 250630Z 02005KT 9999 FEW015 SCT100 BKN200 32/26 Q1005 NOSIG RMK A2969
cycle: 6

Station Type Date Time Source
RCTP TAF 2019/08/25 06:03 UTC NOAA

TAF RCTP 250500Z 2506/2612 01007KT 9999 FEW020 BKN060
TEMPO 2507/2511 14005KT 4000 SHRA SCT010 BKN022 BKN050
BECMG 2511/2513 08005KT
TEMPO 2518/2523 23005KT FEW010 BKN020
BECMG 2523/2601 02008KT

Example: see airport list